Time;durP1;ratioP1;P1;durP2;ratioP2;P2;SDS_P1;SDS_P2;PMS_P1;PMS_P2;Temp;Humidity;BMP_temperature;BMP_pressure;BME280_temperature;BME280_humidity;BME280_pressure;Samples;Min_cycle;Max_cycle;Signal;HPM_P1;HPM_P2
2023/07/14 00:02:55;;;;;;;3.80;2.13;;;;;;;21.15;42.04;100018.94;10477665;28;20255;-66
2023/07/14 00:07:57;;;;;;;2.03;1.70;;;;;;;20.93;41.87;99999.00;10477107;28;20649;-66
2023/07/14 00:13:01;;;;;;;3.08;1.80;;;;;;;20.48;42.67;100012.41;10483103;28;20227;-67
2023/07/14 00:18:11;;;;;;;1.75;1.60;;;;;;;19.48;44.57;100055.19;10478309;28;20262;-66
2023/07/14 00:23:14;;;;;;;5.07;1.85;;;;;;;20.82;42.26;100006.19;10479214;28;20338;-66
2023/07/14 00:28:21;;;;;;;1.80;1.52;;;;;;;20.94;42.41;100006.94;10433871;28;20224;-66
2023/07/14 00:33:23;;;;;;;3.25;1.70;;;;;;;20.81;42.59;100015.44;10477757;28;20227;-66
2023/07/14 00:38:25;;;;;;;2.75;2.05;;;;;;;20.99;42.69;99996.13;10451674;28;20212;-66
2023/07/14 00:43:30;;;;;;;2.25;1.85;;;;;;;20.83;42.21;100011.41;10437083;28;20285;-67
2023/07/14 00:48:32;;;;;;;2.05;1.73;;;;;;;21.13;42.14;99993.88;10484309;28;20247;-66
2023/07/14 00:53:36;;;;;;;2.28;1.80;;;;;;;20.88;41.67;100029.66;10430882;28;20243;-66
2023/07/14 00:58:42;;;;;;;2.42;1.70;;;;;;;19.17;44.78;100056.38;10479284;28;20297;-67
2023/07/14 01:03:44;;;;;;;4.22;2.00;;;;;;;17.95;47.36;100000.63;10441567;28;20267;-66
2023/07/14 01:09:05;;;;;;;3.08;2.00;;;;;;;18.75;45.84;99975.09;10402563;22;20228;-35
2023/07/14 01:14:13;;;;;;;3.60;1.70;;;;;;;18.32;46.45;99993.28;10359684;28;20229;-34
2023/07/14 01:19:31;;;;;;;1.90;1.80;;;;;;;18.31;46.90;99951.00;10358985;28;20290;-34
2023/07/14 01:24:46;;;;;;;2.22;1.80;;;;;;;17.86;47.10;100005.53;10352506;28;20232;-34
2023/07/14 01:29:50;;;;;;;2.20;1.80;;;;;;;17.74;47.34;99954.06;10351987;28;20236;-34
2023/07/14 01:34:52;;;;;;;4.43;1.90;;;;;;;17.66;47.21;99971.44;10359380;28;20264;-35
2023/07/14 01:39:54;;;;;;;3.10;2.07;;;;;;;17.61;47.01;99957.72;10356728;28;20836;-34
2023/07/14 01:44:56;;;;;;;2.87;2.03;;;;;;;19.10;43.91;99928.22;10359798;28;20236;-34
2023/07/14 01:50:00;;;;;;;3.57;2.10;;;;;;;18.34;44.50;100001.16;10357066;28;20241;-35
2023/07/14 01:55:05;;;;;;;2.97;1.73;;;;;;;19.17;42.94;100011.09;10359519;28;20783;-34
2023/07/14 02:00:11;;;;;;;2.67;1.97;;;;;;;20.11;42.25;99944.06;10355103;28;20268;-34
2023/07/14 02:05:14;;;;;;;2.00;1.67;;;;;;;19.93;42.46;100013.00;10357689;28;20237;-34
2023/07/14 02:10:18;;;;;;;2.93;1.90;;;;;;;19.57;42.89;100042.94;10356044;28;20229;-34
2023/07/14 02:15:29;;;;;;;2.53;2.00;;;;;;;18.53;43.78;100091.34;10358046;28;20225;-35
2023/07/14 02:20:37;;;;;;;2.47;1.90;;;;;;;19.41;42.75;99997.50;10353913;28;20307;-34
2023/07/14 02:25:44;;;;;;;2.03;1.83;;;;;;;18.08;43.44;100090.66;10358844;28;20631;-34
2023/07/14 02:30:52;;;;;;;1.90;1.80;;;;;;;19.63;41.75;100005.06;10343895;28;20245;-34
2023/07/14 02:36:13;;;;;;;2.00;1.80;;;;;;;19.80;41.38;100007.84;10355953;28;20300;-36
2023/07/14 02:41:26;;;;;;;5.77;2.13;;;;;;;19.66;42.05;99993.72;10355001;28;20237;-34
2023/07/14 02:46:47;;;;;;;3.93;1.77;;;;;;;18.80;42.32;100040.28;10356069;28;20240;-33
2023/07/14 02:51:49;;;;;;;4.33;1.83;;;;;;;20.30;40.88;99961.00;10352557;28;20248;-34
2023/07/14 02:56:52;;;;;;;2.83;2.00;;;;;;;19.72;41.96;100015.31;10357202;28;20291;-36
2023/07/14 03:01:54;;;;;;;3.27;2.50;;;;;;;18.65;42.98;100073.25;10356644;28;20276;-36
2023/07/14 03:06:56;;;;;;;4.40;2.20;;;;;;;19.28;42.82;99952.47;10351592;28;20229;-36
2023/07/14 03:11:58;;;;;;;2.63;1.57;;;;;;;19.15;42.88;99983.38;10354366;28;20264;-33
2023/07/14 03:17:00;;;;;;;2.93;2.00;;;;;;;19.79;42.08;99947.28;10354927;28;20229;-34
2023/07/14 03:22:02;;;;;;;3.67;1.93;;;;;;;20.14;41.66;99968.00;10348828;28;20328;-34
2023/07/14 03:27:04;;;;;;;4.50;1.90;;;;;;;19.96;41.98;99969.06;10354984;28;20725;-34
2023/07/14 03:32:12;;;;;;;2.57;2.37;;;;;;;19.87;42.42;99993.06;10346067;28;20245;-36
2023/07/14 03:37:13;;;;;;;1.97;1.80;;;;;;;20.59;41.04;99966.38;10352180;28;20253;-34
2023/07/14 03:42:15;;;;;;;3.93;2.07;;;;;;;20.34;41.90;99993.94;10355235;28;20276;-34
2023/07/14 03:47:17;;;;;;;3.93;2.00;;;;;;;21.08;41.04;99933.13;10359364;28;20308;-36
2023/07/14 03:52:19;;;;;;;2.72;1.95;;;;;;;19.90;42.16;100018.91;10360600;28;20789;-35
2023/07/14 03:57:21;;;;;;;2.93;2.07;;;;;;;20.23;41.93;99973.94;10357617;28;20731;-35
2023/07/14 04:02:23;;;;;;;4.67;1.80;;;;;;;20.20;41.72;99980.66;10361526;28;20272;-36
2023/07/14 04:07:25;;;;;;;2.27;1.70;;;;;;;19.92;42.85;99984.19;10359447;28;20237;-34
2023/07/14 04:12:27;;;;;;;3.80;2.00;;;;;;;20.09;42.59;99944.31;10360470;28;20237;-36
2023/07/14 04:17:30;;;;;;;2.90;1.83;;;;;;;20.34;41.84;99917.84;10374519;28;20230;-34
2023/07/14 04:22:32;;;;;;;3.37;1.90;;;;;;;20.63;41.43;99915.84;10363275;28;20312;-36
2023/07/14 04:27:36;;;;;;;2.78;2.03;;;;;;;20.77;41.75;99891.91;10360939;28;20316;-34
2023/07/14 04:32:37;;;;;;;2.88;1.80;;;;;;;19.98;42.39;99925.38;10360815;28;20237;-34
2023/07/14 04:37:39;;;;;;;3.40;2.10;;;;;;;18.95;45.76;99917.84;10361776;28;20330;-34
2023/07/14 04:42:41;;;;;;;2.27;1.93;;;;;;;20.57;43.29;99867.94;10354637;28;20265;-36
2023/07/14 04:47:43;;;;;;;2.77;2.10;;;;;;;20.16;42.98;99937.88;10372617;28;22603;-36
2023/07/14 04:52:45;;;;;;;6.43;2.07;;;;;;;19.77;43.82;99924.97;10357264;28;20296;-34
2023/07/14 04:57:47;;;;;;;11.20;2.57;;;;;;;18.74;45.17;99925.50;10360298;28;20233;-36
2023/07/14 05:02:49;;;;;;;2.80;1.90;;;;;;;17.81;46.09;99957.50;10354399;28;20714;-34
2023/07/14 05:07:52;;;;;;;2.83;1.90;;;;;;;17.41;46.31;99973.34;10358935;28;20307;-34
2023/07/14 05:12:56;;;;;;;2.23;1.87;;;;;;;16.93;47.71;99912.69;10356645;28;20994;-34
2023/07/14 05:17:57;;;;;;;5.27;2.33;;;;;;;15.56;50.17;99938.34;10353971;28;20225;-36
2023/07/14 05:22:59;;;;;;;4.13;2.27;;;;;;;15.97;48.98;99939.81;10355416;28;20299;-33
2023/07/14 05:28:01;;;;;;;7.97;2.50;;;;;;;18.32;45.73;99884.94;10356655;28;20244;-36
2023/07/14 05:33:04;;;;;;;2.47;1.87;;;;;;;18.37;44.91;99941.94;10351454;28;20226;-36
2023/07/14 05:38:06;;;;;;;3.07;2.10;;;;;;;16.71;48.08;99945.53;10357840;28;20252;-36
2023/07/14 05:43:08;;;;;;;2.60;2.17;;;;;;;18.53;44.44;99931.50;10355479;28;20229;-36
2023/07/14 05:48:10;;;;;;;2.43;2.23;;;;;;;17.94;45.80;99945.66;10357466;28;20237;-36
2023/07/14 05:53:15;;;;;;;2.40;2.20;;;;;;;17.18;47.83;99928.91;10357826;28;20644;-36
2023/07/14 05:58:17;;;;;;;4.43;1.83;;;;;;;17.59;46.42;99942.78;10361337;28;20243;-36
2023/07/14 06:03:18;;;;;;;3.83;2.30;;;;;;;19.16;44.68;99860.25;10355396;28;20369;-36
2023/07/14 06:08:20;;;;;;;2.60;2.40;;;;;;;19.78;44.17;99853.31;10353248;28;20262;-35
2023/07/14 06:13:24;;;;;;;2.40;1.80;;;;;;;18.34;45.90;99942.41;10357302;28;20201;-36
2023/07/14 06:18:26;;;;;;;2.27;1.80;;;;;;;18.41;46.16;99882.72;10357822;28;20309;-36
2023/07/14 06:23:28;;;;;;;2.27;2.00;;;;;;;18.69;45.67;99919.94;10352988;28;20236;-36
2023/07/14 06:28:30;;;;;;;3.17;1.77;;;;;;;18.17;46.45;99960.34;10354990;28;20238;-36
2023/07/14 06:33:33;;;;;;;2.00;1.80;;;;;;;18.58;46.21;99853.03;10356603;28;20613;-36
2023/07/14 06:38:36;;;;;;;2.80;2.03;;;;;;;18.42;46.08;99917.69;10349408;28;20242;-36
2023/07/14 06:43:38;;;;;;;2.30;2.10;;;;;;;18.21;45.86;99954.22;10354621;28;20244;-36
2023/07/14 06:48:40;;;;;;;2.63;1.80;;;;;;;18.83;44.72;99882.59;10352264;28;20476;-36
2023/07/14 06:53:42;;;;;;;3.43;1.80;;;;;;;20.26;43.09;99843.00;10352753;28;20329;-36
2023/07/14 06:58:44;;;;;;;2.47;1.90;;;;;;;19.88;44.31;99877.94;10354758;28;20245;-36
2023/07/14 07:03:46;;;;;;;2.13;1.93;;;;;;;18.51;44.82;99985.91;10352966;28;20236;-36
2023/07/14 07:08:49;;;;;;;4.80;2.10;;;;;;;19.10;43.91;100013.09;10353289;28;20722;-36
2023/07/14 07:13:50;;;;;;;3.40;1.70;;;;;;;19.27;43.76;99987.97;10355898;28;20236;-36
2023/07/14 07:18:52;;;;;;;2.17;1.67;;;;;;;19.38;44.65;99892.16;10356467;28;20275;-36
2023/07/14 07:23:54;;;;;;;3.72;2.00;;;;;;;19.60;43.84;99952.06;10359530;28;20240;-36
2023/07/14 07:28:56;;;;;;;2.83;1.70;;;;;;;20.87;42.84;99854.00;10361149;28;20319;-36
2023/07/14 07:33:58;;;;;;;3.45;2.05;;;;;;;20.07;44.05;99935.56;10358820;28;20611;-36
2023/07/14 07:39:00;;;;;;;2.58;1.70;;;;;;;20.07;44.40;99883.97;10365230;28;20229;-36
2023/07/14 07:44:02;;;;;;;3.75;1.88;;;;;;;21.35;42.65;99851.56;10362068;28;20806;-36
2023/07/14 07:49:04;;;;;;;3.65;2.00;;;;;;;21.21;41.58;99940.94;10359111;28;20268;-33
2023/07/14 07:54:05;;;;;;;2.20;1.77;;;;;;;21.44;42.22;99874.53;10360044;28;20593;-36
2023/07/14 07:59:08;;;;;;;3.00;1.83;;;;;;;22.78;41.73;99851.19;10361004;28;20237;-33
2023/07/14 08:04:10;;;;;;;3.03;1.90;;;;;;;21.59;41.83;99922.91;10353180;28;20233;-33
2023/07/14 08:09:12;;;;;;;1.92;1.48;;;;;;;21.69;42.09;99859.56;10359460;28;20230;-36
2023/07/14 08:14:17;;;;;;;3.08;1.90;;;;;;;23.03;40.75;99834.13;10362206;28;20209;-36
2023/07/14 08:19:19;;;;;;;2.85;1.58;;;;;;;20.91;42.17;99904.06;10378045;22;20418;-34
2023/07/14 08:24:21;;;;;;;2.83;1.83;;;;;;;21.25;41.75;99917.56;10351554;28;20229;-34
2023/07/14 08:29:23;;;;;;;4.18;1.50;;;;;;;23.36;39.75;99805.56;10351504;28;20238;-34
2023/07/14 08:34:27;;;;;;;3.22;1.52;;;;;;;23.57;40.11;99816.56;10351814;28;20730;-34
2023/07/14 08:39:28;;;;;;;3.88;1.75;;;;;;;23.03;39.37;99862.22;10351219;28;20236;-34
2023/07/14 08:45:03;;;;;;;3.08;1.70;;;;;;;21.78;41.38;99891.53;10354162;28;20212;-34
2023/07/14 08:50:13;;;;;;;2.25;1.50;;;;;;;21.78;41.69;99811.75;10350231;28;20229;-34
2023/07/14 08:55:23;;;;;;;2.58;1.52;;;;;;;24.28;38.42;99793.91;10347856;28;20266;-34
2023/07/14 09:00:43;;;;;;;1.55;1.42;;;;;;;23.74;39.27;99854.56;10348683;28;20304;-34
2023/07/14 09:06:01;;;;;;;2.03;1.70;;;;;;;22.32;39.80;99884.41;10345752;28;20233;-34
2023/07/14 09:11:28;;;;;;;3.90;1.90;;;;;;;22.65;39.56;99861.47;10349299;28;20240;-34
2023/07/14 09:16:35;;;;;;;2.83;2.00;;;;;;;22.64;38.65;99837.19;10347992;28;20265;-34
2023/07/14 09:21:45;;;;;;;3.50;1.40;;;;;;;24.22;37.60;99807.84;10351793;28;20782;-34
2023/07/14 09:26:55;;;;;;;2.55;1.88;;;;;;;22.61;39.68;99854.91;10339993;28;20702;-34
2023/07/14 09:32:14;;;;;;;2.00;1.55;;;;;;;23.04;39.59;99820.22;10347310;28;20256;-34
2023/07/14 09:37:21;;;;;;;2.58;1.70;;;;;;;24.24;37.76;99794.72;10350240;28;20793;-35
2023/07/14 09:42:29;;;;;;;4.18;1.58;;;;;;;24.97;37.39;99783.31;10350806;28;20237;-34
2023/07/14 09:47:32;;;;;;;5.15;1.63;;;;;;;24.21;37.01;99831.66;10343768;28;20241;-34
2023/07/14 09:52:48;;;;;;;2.83;1.70;;;;;;;25.22;36.42;99759.63;10351015;28;20229;-35
2023/07/14 09:57:54;;;;;;;3.53;1.90;;;;;;;25.70;36.30;99806.41;10341717;28;20619;-34
2023/07/14 10:03:15;;;;;;;2.70;1.65;;;;;;;23.89;37.34;99827.25;10347808;28;20229;-35
2023/07/14 10:08:30;;;;;;;5.00;2.17;;;;;;;25.18;36.03;99777.69;10344393;28;20323;-35
2023/07/14 10:13:37;;;;;;;2.40;1.67;;;;;;;25.36;35.65;99823.63;10345364;28;20219;-34
2023/07/14 10:18:57;;;;;;;4.35;1.67;;;;;;;25.36;36.37;99771.59;10342229;28;20337;-34
2023/07/14 10:24:18;;;;;;;4.90;1.60;;;;;;;25.16;36.63;99788.13;10349956;28;20774;-34
2023/07/14 10:29:22;;;;;;;2.35;1.60;;;;;;;25.55;36.90;99727.09;10348048;28;20271;-34
2023/07/14 10:34:48;;;;;;;2.72;1.30;;;;;;;25.37;35.40;99748.59;10352657;28;20236;-34
2023/07/14 10:40:17;;;;;;;3.53;1.85;;;;;;;24.76;35.25;99806.38;10347730;28;20249;-34
2023/07/14 10:45:19;;;;;;;3.40;1.67;;;;;;;26.26;34.23;99733.03;10339080;28;20701;-34
2023/07/14 10:50:27;;;;;;;2.90;1.73;;;;;;;26.83;33.27;99730.44;10348570;28;20229;-34
2023/07/14 10:55:32;;;;;;;3.72;1.75;;;;;;;26.40;34.75;99725.72;10343610;28;20253;-34
2023/07/14 11:06:28;;;;;;;2.40;1.60;;;;;;;25.05;35.57;99678.69;10382161;27;20847;-65
2023/07/14 11:11:33;;;;;;;2.78;1.83;;;;;;;24.11;35.25;99716.84;10323932;28;20230;-66
2023/07/14 11:16:57;;;;;;;2.83;1.45;;;;;;;24.94;33.95;99718.16;10315699;28;20230;-66
2023/07/14 11:22:14;;;;;;;3.58;2.17;;;;;;;25.54;35.16;99714.47;10339652;28;20225;-66
2023/07/14 11:28:24;;;;;;;2.20;1.40;;;;;;;24.42;35.01;99697.63;10346852;28;20668;-66
2023/07/14 11:33:44;;;;;;;1.50;1.38;;;;;;;25.92;34.24;99654.41;10286113;28;20792;-66
2023/07/14 11:39:04;;;;;;;2.28;1.70;;;;;;;25.79;34.57;99683.31;10347898;28;20252;-65
2023/07/14 11:44:13;;;;;;;3.55;1.40;;;;;;;25.97;34.19;99666.13;10342475;28;20303;-66
2023/07/14 11:49:33;;;;;;;3.25;1.40;;;;;;;26.26;34.32;99665.28;10346648;28;20229;-66
2023/07/14 11:55:01;;;;;;;3.45;1.63;;;;;;;24.90;35.27;99678.81;10343336;28;20250;-66
2023/07/14 12:00:24;;;;;;;5.30;1.50;;;;;;;25.09;34.76;99641.44;10338590;28;20276;-66
2023/07/14 12:05:31;;;;;;;4.03;1.52;;;;;;;24.56;34.33;99671.28;10344073;28;20241;-66
2023/07/14 12:10:39;;;;;;;2.85;1.42;;;;;;;25.03;33.74;99611.66;10340453;28;20253;-66
2023/07/14 12:15:55;;;;;;;2.85;1.63;;;;;;;25.19;33.98;99669.84;10323304;28;20230;-66
2023/07/14 12:21:17;;;;;;;3.50;2.13;;;;;;;26.05;33.37;99634.53;10318060;28;20225;-66
2023/07/14 12:26:31;;;;;;;3.50;1.60;;;;;;;26.49;33.40;99627.97;10316092;28;20241;-66
2023/07/14 12:31:35;;;;;;;2.33;1.40;;;;;;;26.00;33.87;99590.72;10309333;28;20233;-66
2023/07/14 12:36:42;;;;;;;6.25;1.70;;;;;;;26.04;33.73;99591.78;10311646;28;20610;-67
2023/07/14 12:41:50;;;;;;;3.95;1.60;;;;;;;26.36;33.36;99591.09;10314231;28;20249;-67
2023/07/14 12:46:54;;;;;;;1.70;1.58;;;;;;;27.01;32.41;99577.78;10313715;28;20329;-67
2023/07/14 12:51:56;;;;;;;2.45;1.38;;;;;;;26.92;32.03;99592.22;10310994;28;20313;-66
2023/07/14 12:57:00;;;;;;;3.35;1.55;;;;;;;26.32;32.20;99572.81;10318210;28;20280;-66
2023/07/14 13:02:02;;;;;;;2.08;1.48;;;;;;;26.08;30.90;99595.56;10311622;28;20238;-66
2023/07/14 13:07:34;;;;;;;1.90;1.48;;;;;;;25.35;32.52;99589.22;10316431;28;20234;-67
2023/07/14 13:12:37;;;;;;;4.32;1.48;;;;;;;25.35;32.96;99555.53;10317404;28;20353;-66
2023/07/14 13:17:40;;;;;;;1.52;1.20;;;;;;;25.66;33.44;99513.00;10277074;28;20254;-66
2023/07/14 13:22:42;;;;;;;2.03;1.42;;;;;;;26.19;32.89;99501.09;10299252;28;20321;-67
2023/07/14 13:27:44;;;;;;;1.58;1.40;;;;;;;26.90;32.59;99486.56;10302900;28;20238;-66
2023/07/14 13:32:53;;;;;;;3.10;1.40;;;;;;;26.39;32.96;99526.63;10312817;28;20238;-66
2023/07/14 13:38:00;;;;;;;2.13;1.50;;;;;;;26.75;31.93;99493.13;10315105;28;20238;-67
2023/07/14 13:43:03;;;;;;;3.00;1.70;;;;;;;27.80;30.78;99480.72;10315336;28;20236;-67
2023/07/14 13:48:24;;;;;;;3.55;2.05;;;;;;;26.54;31.46;99468.75;10275706;28;20242;-67
2023/07/14 13:53:27;;;;;;;1.95;1.25;;;;;;;28.30;31.02;99444.97;10313557;28;20253;-66
2023/07/14 13:58:29;;;;;;;1.80;1.20;;;;;;;27.30;31.86;99479.53;10311530;28;20233;-67
2023/07/14 14:03:31;;;;;;;2.63;1.30;;;;;;;26.47;32.27;99493.03;10313756;28;20238;-69
2023/07/14 14:08:33;;;;;;;3.08;1.20;;;;;;;27.62;31.91;99450.31;10312595;28;20238;-68
2023/07/14 14:13:35;;;;;;;2.47;1.42;;;;;;;27.55;31.36;99441.66;10310633;28;20321;-67
2023/07/14 14:18:37;;;;;;;2.63;1.45;;;;;;;28.00;31.38;99441.81;10310420;28;20249;-68
2023/07/14 14:23:39;;;;;;;1.27;1.05;;;;;;;28.02;30.60;99444.22;10309618;28;20297;-68
2023/07/14 14:28:40;;;;;;;2.38;1.45;;;;;;;28.73;30.97;99413.38;10313167;28;20354;-68
2023/07/14 14:33:42;;;;;;;2.78;1.75;;;;;;;28.27;31.61;99411.75;10306062;28;20638;-68
2023/07/14 14:38:47;;;;;;;2.40;1.38;;;;;;;27.03;32.07;99443.78;10313220;28;20242;-67
2023/07/14 14:43:52;;;;;;;1.83;1.40;;;;;;;28.15;31.73;99365.53;10312680;28;20237;-67
2023/07/14 14:48:54;;;;;;;5.18;1.77;;;;;;;28.32;31.00;99395.94;10311770;28;20269;-68
2023/07/14 14:53:55;;;;;;;3.63;1.30;;;;;;;28.53;31.43;99362.41;10310221;28;20857;-68
2023/07/14 14:59:22;;;;;;;1.90;1.48;;;;;;;28.40;32.04;99373.16;10306534;28;20316;-69
2023/07/14 15:04:28;;;;;;;2.28;1.60;;;;;;;28.31;31.21;99368.78;10307782;28;20236;-67
2023/07/14 15:09:30;;;;;;;2.03;1.38;;;;;;;28.55;31.58;99362.91;10308333;28;20368;-68
2023/07/14 15:14:35;;;;;;;2.97;1.50;;;;;;;28.10;31.52;99382.97;10312292;28;20276;-67
2023/07/14 15:19:37;;;;;;;2.03;1.40;;;;;;;28.70;31.24;99368.00;10309596;28;20308;-68
2023/07/14 15:24:39;;;;;;;4.40;1.60;;;;;;;28.56;31.14;99359.84;10309975;28;20234;-69
2023/07/14 15:29:41;;;;;;;3.35;1.60;;;;;;;28.62;31.33;99366.00;10317369;28;20304;-69
2023/07/14 15:34:43;;;;;;;1.73;1.42;;;;;;;28.55;30.79;99373.91;10312595;28;20257;-69
2023/07/14 15:39:45;;;;;;;2.42;1.38;;;;;;;27.02;31.82;99365.28;10312705;28;20267;-68
2023/07/14 15:44:47;;;;;;;5.38;2.38;;;;;;;28.30;30.92;99351.44;10310598;28;20234;-70
2023/07/14 15:49:49;;;;;;;2.67;1.40;;;;;;;29.10;30.76;99323.09;10316128;28;20670;-68
2023/07/14 15:54:51;;;;;;;1.73;1.30;;;;;;;28.50;30.44;99360.28;10318237;28;20432;-68
2023/07/14 15:59:53;;;;;;;2.60;1.60;;;;;;;29.05;31.02;99326.84;10322724;28;20241;-67
2023/07/14 16:04:55;;;;;;;4.22;1.70;;;;;;;27.95;31.05;99325.63;10304111;28;20258;-68
2023/07/14 16:09:57;;;;;;;3.92;1.35;;;;;;;29.10;30.60;99312.09;10291228;28;20237;-68
2023/07/14 16:14:59;;;;;;;2.97;1.42;;;;;;;28.89;31.26;99287.91;10318353;28;20225;-68
2023/07/14 16:20:02;;;;;;;2.67;1.55;;;;;;;29.33;30.10;99286.06;10317803;28;20281;-68
2023/07/14 16:25:04;;;;;;;2.40;1.40;;;;;;;28.78;29.98;99309.44;10317136;28;20280;-68
2023/07/14 16:30:17;;;;;;;4.25;1.88;;;;;;;29.59;30.52;99278.94;10316199;28;20250;-68
2023/07/14 16:35:24;;;;;;;3.42;1.38;;;;;;;29.05;30.48;99284.69;10312855;28;20230;-69
2023/07/14 16:40:35;;;;;;;2.72;1.60;;;;;;;28.97;31.11;99256.03;10317621;28;20321;-68
2023/07/14 16:45:37;;;;;;;2.53;1.40;;;;;;;29.15;30.46;99271.47;10315203;28;20238;-69
2023/07/14 16:50:40;;;;;;;1.60;1.45;;;;;;;28.94;31.23;99267.69;10318103;28;20615;-70
2023/07/14 16:55:42;;;;;;;2.33;1.50;;;;;;;29.81;30.48;99256.72;10315644;28;20325;-72
2023/07/14 17:00:44;;;;;;;1.67;1.40;;;;;;;29.72;31.37;99255.91;10316323;28;20316;-71
2023/07/14 17:05:45;;;;;;;4.18;1.42;;;;;;;29.25;30.96;99264.00;10312751;28;20308;-67
2023/07/14 17:10:49;;;;;;;2.35;1.40;;;;;;;29.41;30.62;99254.13;10312705;28;20222;-67
2023/07/14 17:15:52;;;;;;;2.35;1.40;;;;;;;28.67;31.40;99275.06;10291676;28;20354;-66
2023/07/14 17:20:55;;;;;;;2.40;1.65;;;;;;;29.45;31.23;99235.00;10300044;28;20292;-65
2023/07/14 17:25:58;;;;;;;2.67;1.85;;;;;;;30.44;30.31;99236.88;10312000;28;20922;-66
2023/07/14 17:31:01;;;;;;;2.90;1.52;;;;;;;29.57;31.22;99264.66;10310872;28;20883;-65
2023/07/14 17:36:07;;;;;;;3.10;1.75;;;;;;;30.11;30.29;99240.25;10313435;28;20641;-65
2023/07/14 17:41:09;;;;;;;2.15;1.85;;;;;;;29.88;31.29;99247.94;10308976;28;20249;-66
2023/07/14 17:46:12;;;;;;;2.05;1.38;;;;;;;30.10;31.61;99237.84;10312877;28;20752;-65
2023/07/14 17:51:14;;;;;;;5.47;1.50;;;;;;;29.97;31.14;99247.91;10313615;28;20236;-66
2023/07/14 17:56:16;;;;;;;3.15;1.60;;;;;;;29.86;30.57;99256.53;10312110;28;20231;-67
2023/07/14 18:01:17;;;;;;;4.72;1.40;;;;;;;29.66;31.29;99247.00;10315527;28;20771;-67
2023/07/14 18:06:21;;;;;;;2.33;1.50;;;;;;;30.31;30.35;99235.16;10310201;28;20732;-67
2023/07/14 18:11:24;;;;;;;3.25;1.70;;;;;;;29.84;31.94;99241.44;10313384;28;20732;-67
2023/07/14 18:16:26;;;;;;;1.70;1.38;;;;;;;29.52;31.08;99238.91;10312011;28;20273;-67
2023/07/14 18:21:28;;;;;;;4.00;1.60;;;;;;;28.49;32.14;99256.84;10312064;28;20230;-67
2023/07/14 18:26:30;;;;;;;2.38;1.60;;;;;;;29.51;31.37;99220.72;10305815;28;20292;-67
2023/07/14 18:31:32;;;;;;;2.00;1.33;;;;;;;29.53;31.58;99207.44;10311761;28;20234;-67
2023/07/14 18:36:34;;;;;;;2.40;1.65;;;;;;;29.44;32.72;99194.81;10308376;28;20670;-67
2023/07/14 18:41:37;;;;;;;3.63;1.63;;;;;;;29.39;33.03;99197.75;10311172;28;20245;-67
2023/07/14 18:46:39;;;;;;;9.15;1.85;;;;;;;28.89;33.12;99207.28;10313288;28;20300;-68
2023/07/14 18:51:43;;;;;;;7.93;2.30;;;;;;;28.66;33.01;99210.16;10314928;28;20237;-67
2023/07/14 18:56:44;;;;;;;12.48;2.67;;;;;;;28.47;32.20;99223.34;10311806;28;20952;-68
2023/07/14 19:01:47;;;;;;;12.95;2.53;;;;;;;29.46;32.00;99196.09;10311987;28;20234;-68
2023/07/14 19:06:50;;;;;;;7.47;2.30;;;;;;;28.20;33.36;99211.44;10307954;28;20234;-67
2023/07/14 19:11:57;;;;;;;9.07;2.05;;;;;;;28.77;32.56;99192.19;10312467;28;20665;-65
2023/07/14 19:16:59;;;;;;;17.50;3.60;;;;;;;27.33;35.16;99206.19;10308314;28;20253;-66
2023/07/14 19:22:02;;;;;;;12.00;2.40;;;;;;;28.71;33.84;99185.22;10310832;28;20245;-66
2023/07/14 19:27:13;;;;;;;9.52;2.17;;;;;;;27.89;35.36;99181.19;10315331;28;20233;-66
2023/07/14 19:32:15;;;;;;;7.38;2.45;;;;;;;28.87;34.29;99195.78;10318166;28;20238;-66
2023/07/14 19:37:19;;;;;;;10.50;2.15;;;;;;;29.11;33.90;99209.84;10319708;28;20897;-66
2023/07/14 19:42:22;;;;;;;5.53;2.00;;;;;;;28.81;32.94;99227.34;10284786;28;20238;-66
2023/07/14 19:47:24;;;;;;;5.28;1.80;;;;;;;26.00;37.90;99237.16;10277974;28;20602;-66
2023/07/14 19:52:26;;;;;;;4.80;1.88;;;;;;;28.17;35.93;99188.09;10311405;28;20265;-66
2023/07/14 19:57:28;;;;;;;12.93;2.33;;;;;;;27.46;35.53;99252.03;10317094;28;20724;-66
2023/07/14 20:02:30;;;;;;;3.60;2.15;;;;;;;26.71;37.29;99187.50;10316271;28;20276;-65
2023/07/14 20:07:32;;;;;;;3.65;1.85;;;;;;;28.16;36.04;99213.19;10279780;28;20238;-66
2023/07/14 20:12:33;;;;;;;4.68;2.13;;;;;;;27.59;35.85;99250.31;10279692;28;20309;-65
2023/07/14 20:17:35;;;;;;;12.35;1.80;;;;;;;27.95;36.33;99216.47;10273257;28;20235;-71
2023/07/14 20:22:37;;;;;;;11.38;2.40;;;;;;;27.99;36.12;99219.41;10309854;28;20259;-68
2023/07/14 20:27:40;;;;;;;5.82;1.75;;;;;;;28.15;35.36;99228.84;10277559;28;20238;-66
2023/07/14 20:32:41;;;;;;;6.10;1.60;;;;;;;27.75;36.33;99231.56;10275452;28;20337;-66
2023/07/14 20:37:45;;;;;;;4.13;1.83;;;;;;;26.84;37.08;99244.34;10271326;28;20254;-67
2023/07/14 20:42:47;;;;;;;3.80;1.77;;;;;;;27.63;36.02;99231.28;10314544;28;20233;-67
2023/07/14 20:47:49;;;;;;;4.25;2.38;;;;;;;26.36;37.11;99266.66;10276602;28;20414;-66
2023/07/14 20:52:52;;;;;;;4.32;1.88;;;;;;;25.50;37.88;99239.59;10270835;28;20239;-68
2023/07/14 20:57:54;;;;;;;6.03;1.98;;;;;;;25.71;37.44;99243.63;10288376;28;20317;-66
2023/07/14 21:02:56;;;;;;;5.93;1.88;;;;;;;26.82;36.83;99218.31;10271689;28;20762;-64
2023/07/14 21:07:58;;;;;;;3.30;1.90;;;;;;;26.73;36.80;99262.13;10276312;28;20230;-65
2023/07/14 21:13:00;;;;;;;3.65;2.15;;;;;;;26.12;38.06;99245.69;10273534;28;20226;-64
2023/07/14 21:18:02;;;;;;;3.10;1.88;;;;;;;25.50;39.05;99251.34;10305607;28;20238;-67
2023/07/14 21:23:14;;;;;;;3.40;1.85;;;;;;;24.51;40.46;99252.91;10313840;28;20234;-64
2023/07/14 21:28:15;;;;;;;4.60;1.80;;;;;;;24.54;39.94;99266.00;10312097;28;20279;-65
2023/07/14 21:33:26;;;;;;;5.35;1.80;;;;;;;25.07;39.44;99224.88;10268239;28;20235;-66
2023/07/14 21:38:30;;;;;;;5.43;2.58;;;;;;;23.91;41.05;99248.56;10271035;28;20233;-64
2023/07/14 21:43:41;;;;;;;4.35;2.20;;;;;;;25.06;39.40;99228.69;10271118;28;20702;-65
2023/07/14 21:48:43;;;;;;;7.38;2.40;;;;;;;25.46;39.68;99236.66;10296120;28;20270;-65
2023/07/14 21:53:48;;;;;;;2.85;1.90;;;;;;;25.88;39.38;99229.41;10280869;28;20692;-69
2023/07/14 21:58:49;;;;;;;3.45;1.90;;;;;;;25.56;39.66;99238.41;10306094;28;20296;-67
2023/07/14 22:03:53;;;;;;;5.90;2.00;;;;;;;24.93;40.86;99237.63;10298553;28;20622;-65
2023/07/14 22:08:55;;;;;;;2.75;1.77;;;;;;;24.88;41.31;99218.56;10297552;28;20238;-67
2023/07/14 22:13:57;;;;;;;3.60;2.00;;;;;;;25.62;39.92;99240.75;10269208;28;20297;-65
2023/07/14 22:19:01;;;;;;;4.35;2.10;;;;;;;24.08;41.41;99288.31;10266516;28;20257;-67
2023/07/14 22:24:03;;;;;;;3.63;2.33;;;;;;;24.33;41.28;99243.56;10271780;28;20238;-69
2023/07/14 22:29:05;;;;;;;2.83;2.00;;;;;;;25.39;39.72;99253.44;10276205;28;20755;-67
2023/07/14 22:34:16;;;;;;;3.40;2.13;;;;;;;23.98;41.64;99287.28;10298287;28;20321;-65
2023/07/14 22:39:19;;;;;;;5.00;2.40;;;;;;;25.37;40.24;99236.50;10268707;28;20343;-69
2023/07/14 22:44:21;;;;;;;2.92;2.00;;;;;;;25.08;40.50;99250.31;10281471;28;20235;-68
2023/07/14 22:49:22;;;;;;;2.47;2.03;;;;;;;24.58;41.66;99258.03;10302214;28;20241;-67
2023/07/14 22:54:24;;;;;;;2.80;2.03;;;;;;;24.80;41.15;99252.03;10306035;28;20779;-67
2023/07/14 22:59:26;;;;;;;3.50;2.45;;;;;;;23.91;42.12;99275.88;10305688;28;20554;-66
2023/07/14 23:04:28;;;;;;;5.65;2.80;;;;;;;23.40;43.28;99273.53;10303417;28;20235;-67
2023/07/14 23:09:29;;;;;;;3.40;2.70;;;;;;;24.10;42.70;99223.25;10267327;28;20751;-68
2023/07/14 23:14:31;;;;;;;4.70;2.80;;;;;;;24.32;42.07;99245.44;10270707;28;20262;-69
2023/07/14 23:19:33;;;;;;;3.33;2.15;;;;;;;24.04;42.46;99284.50;10277468;28;20934;-68
2023/07/14 23:24:35;;;;;;;5.32;2.30;;;;;;;25.10;41.16;99228.91;10309224;28;20667;-65
2023/07/14 23:29:36;;;;;;;4.45;2.55;;;;;;;24.43;42.10;99239.88;10309881;28;20929;-69
2023/07/14 23:34:38;;;;;;;3.53;2.55;;;;;;;24.56;40.67;99274.72;10303168;28;20254;-68
2023/07/14 23:39:40;;;;;;;2.88;2.42;;;;;;;23.78;41.84;99260.16;10308462;28;20250;-68
2023/07/14 23:44:42;;;;;;;5.20;2.40;;;;;;;23.97;41.80;99244.69;10309748;28;20266;-68